Covesville, VA (22931)

7:35 AM EST on February 27, 2015 (GMT -0500)
Fan Mountain Observatory | Change Station
CLOSE
Current Station
Personal Weather Station
Location: Covesville, VA
Elevation: 1788 ft
Nearby Weather Stations

Elev 1788 ft 37.88 °N, 78.69 °W | Updated 4 seconds ago

Mostly Cloudy
Mostly Cloudy
24.7 °F
Feels Like 25 °F
N
-
Wind Variable Wind from North

Today
High -- | Low -- °F
--% Chance of Precip.
Yesterday
High -- | Low -- °F
Precip. -- in
6:49 AM 6:06 PM
Waxing Gibbous, 68% visible
Pressure 30.30 in
Visibility 9.0 miles
Clouds Overcast 4800 ft
Windchill 25 °F
Dew Point 16 °F
Humidity 70%
Rainfall 0.00 in
Snow Depth Not available.
UV 0 out of 12
Pollen 2.50 out of 12
Air Quality Not available.
Flu Activity Not available.
METAR KCHO 271153Z 02003KT 9SM OVC048 M03/M06 A3028 RMK AO2 SLP258 70001 T10281061 10000 21044 53039

More Conditions Fewer Conditions

Pressure 30.30 in
Visibility 9.0 miles
Clouds Overcast 4800 ft
Windchill 25 °F
Dew Point 16 °F
Humidity 70%
Rainfall 0.00 in
Snow Depth Not available.
UV 0 out of 12
Pollen 2.50 out of 12
Air Quality Not available.
Flu Activity Not available.
METAR KCHO 271153Z 02003KT 9SM OVC048 M03/M06 A3028 RMK AO2 SLP258 70001 T10281061 10000 21044 53039

More Conditions Fewer Conditions

10-Day Weather Forecast

Almanac

Astronomy

Feb. 27, 2015 Rise Set
Actual Time
Civil Twilight
Nautical Twilight
Astronomical Twilight
Moon
Length of Visible Light
Length of Day
Tomorrow will be .
, % of the Moon is Illuminated

Today's Extremes

State Highs State Lows

Community

WunderPhotos

Upload Photos

1,800,664 photos uploaded!

WunderBlogs® & News

Nearby

Air Quality

  Air Quality AQ Index Pollutant
Not available.

Snow Depth

Station Depth Elevation

Earthquake Activity

City Distance Mag. Time & Date
Minimum magnitude displayed is 2.5.

Coastal Water Temperatures

Place Temperature

Nearby Weather Stations